sensor_id;sensor_type;location;lat;lon;timestamp;P1;durP1;ratioP1;P2;durP2;ratioP2
69917;SDS011;57203;42.672;23.334;2023-03-19T00:00:27;25.3;;;12.9;;
69917;SDS011;57203;42.672;23.334;2023-03-19T00:01:27;25.6;;;13.4;;
69917;SDS011;57203;42.672;23.334;2023-03-19T00:02:27;27.1;;;12.9;;
69917;SDS011;57203;42.672;23.334;2023-03-19T00:03:28;22.2;;;14.4;;
69917;SDS011;57203;42.672;23.334;2023-03-19T00:04:28;29.0;;;14.5;;
69917;SDS011;57203;42.672;23.334;2023-03-19T00:05:28;28.1;;;14.9;;
69917;SDS011;57203;42.672;23.334;2023-03-19T00:06:28;27.9;;;14.4;;
69917;SDS011;57203;42.672;23.334;2023-03-19T00:07:28;27.1;;;13.5;;
69917;SDS011;57203;42.672;23.334;2023-03-19T00:08:28;25.7;;;12.9;;
69917;SDS011;57203;42.672;23.334;2023-03-19T00:09:28;29.0;;;14.2;;
69917;SDS011;57203;42.672;23.334;2023-03-19T00:10:29;31.2;;;13.1;;
69917;SDS011;57203;42.672;23.334;2023-03-19T00:11:29;23.9;;;12.1;;
69917;SDS011;57203;42.672;23.334;2023-03-19T00:12:29;21.3;;;13.2;;
69917;SDS011;57203;42.672;23.334;2023-03-19T00:13:29;26.4;;;13.7;;
69917;SDS011;57203;42.672;23.334;2023-03-19T00:14:29;28.2;;;14.6;;
69917;SDS011;57203;42.672;23.334;2023-03-19T00:16:30;25.3;;;13.9;;
69917;SDS011;57203;42.672;23.334;2023-03-19T00:17:30;25.3;;;13.4;;
69917;SDS011;57203;42.672;23.334;2023-03-19T00:18:30;28.4;;;13.8;;
69917;SDS011;57203;42.672;23.334;2023-03-19T00:19:30;26.6;;;13.9;;
69917;SDS011;57203;42.672;23.334;2023-03-19T00:20:30;25.8;;;14.6;;
69917;SDS011;57203;42.672;23.334;2023-03-19T00:21:30;27.7;;;13.2;;
69917;SDS011;57203;42.672;23.334;2023-03-19T00:22:30;24.3;;;13.0;;
69917;SDS011;57203;42.672;23.334;2023-03-19T00:23:31;24.3;;;13.6;;
69917;SDS011;57203;42.672;23.334;2023-03-19T00:24:31;22.4;;;13.7;;
69917;SDS011;57203;42.672;23.334;2023-03-19T00:25:31;22.9;;;14.1;;
69917;SDS011;57203;42.672;23.334;2023-03-19T00:26:31;25.8;;;13.2;;
69917;SDS011;57203;42.672;23.334;2023-03-19T00:27:31;23.4;;;12.7;;
69917;SDS011;57203;42.672;23.334;2023-03-19T00:28:31;23.4;;;13.6;;
69917;SDS011;57203;42.672;23.334;2023-03-19T00:29:31;23.1;;;14.1;;
69917;SDS011;57203;42.672;23.334;2023-03-19T00:30:32;24.1;;;14.0;;
69917;SDS011;57203;42.672;23.334;2023-03-19T00:31:32;26.0;;;14.6;;
69917;SDS011;57203;42.672;23.334;2023-03-19T00:32:32;26.0;;;13.9;;
69917;SDS011;57203;42.672;23.334;2023-03-19T00:33:32;27.0;;;14.9;;
69917;SDS011;57203;42.672;23.334;2023-03-19T00:34:33;29.5;;;14.0;;
69917;SDS011;57203;42.672;23.334;2023-03-19T00:35:32;25.9;;;14.3;;
69917;SDS011;57203;42.672;23.334;2023-03-19T00:36:33;28.7;;;13.6;;
69917;SDS011;57203;42.672;23.334;2023-03-19T00:37:33;23.9;;;13.2;;
69917;SDS011;57203;42.672;23.334;2023-03-19T00:38:33;21.8;;;12.9;;
69917;SDS011;57203;42.672;23.334;2023-03-19T00:39:33;21.8;;;13.0;;
69917;SDS011;57203;42.672;23.334;2023-03-19T00:40:33;27.7;;;12.4;;
69917;SDS011;57203;42.672;23.334;2023-03-19T00:41:33;22.9;;;12.8;;
69917;SDS011;57203;42.672;23.334;2023-03-19T00:42:34;27.9;;;13.1;;
69917;SDS011;57203;42.672;23.334;2023-03-19T00:43:34;21.5;;;12.2;;
69917;SDS011;57203;42.672;23.334;2023-03-19T00:44:34;21.5;;;11.9;;
69917;SDS011;57203;42.672;23.334;2023-03-19T00:45:34;22.2;;;12.8;;
69917;SDS011;57203;42.672;23.334;2023-03-19T00:46:34;23.8;;;12.6;;
69917;SDS011;57203;42.672;23.334;2023-03-19T00:47:34;24.7;;;12.3;;
69917;SDS011;57203;42.672;23.334;2023-03-19T00:48:35;22.8;;;12.9;;
69917;SDS011;57203;42.672;23.334;2023-03-19T00:49:35;22.0;;;13.0;;
69917;SDS011;57203;42.672;23.334;2023-03-19T00:50:35;24.4;;;12.7;;
69917;SDS011;57203;42.672;23.334;2023-03-19T00:51:35;23.8;;;13.4;;
69917;SDS011;57203;42.672;23.334;2023-03-19T00:52:35;24.8;;;13.9;;
69917;SDS011;57203;42.672;23.334;2023-03-19T00:53:36;24.8;;;14.1;;
69917;SDS011;57203;42.672;23.334;2023-03-19T00:54:36;24.5;;;14.2;;
69917;SDS011;57203;42.672;23.334;2023-03-19T00:55:36;26.7;;;12.5;;
69917;SDS011;57203;42.672;23.334;2023-03-19T00:56:36;25.2;;;14.1;;
69917;SDS011;57203;42.672;23.334;2023-03-19T00:57:36;25.3;;;12.8;;
69917;SDS011;57203;42.672;23.334;2023-03-19T00:58:36;22.0;;;13.6;;
69917;SDS011;57203;42.672;23.334;2023-03-19T00:59:37;25.0;;;13.7;;
69917;SDS011;57203;42.672;23.334;2023-03-19T01:00:36;28.6;;;13.8;;
69917;SDS011;57203;42.672;23.334;2023-03-19T01:01:37;24.9;;;14.1;;
69917;SDS011;57203;42.672;23.334;2023-03-19T01:02:37;24.9;;;13.9;;
69917;SDS011;57203;42.672;23.334;2023-03-19T01:03:37;24.1;;;12.5;;
69917;SDS011;57203;42.672;23.334;2023-03-19T01:04:37;22.4;;;13.1;;
69917;SDS011;57203;42.672;23.334;2023-03-19T01:05:37;20.3;;;12.6;;
69917;SDS011;57203;42.672;23.334;2023-03-19T01:06:37;20.3;;;13.2;;
69917;SDS011;57203;42.672;23.334;2023-03-19T01:07:37;23.2;;;16.8;;
69917;SDS011;57203;42.672;23.334;2023-03-19T01:08:38;32.3;;;16.3;;
69917;SDS011;57203;42.672;23.334;2023-03-19T01:09:38;32.9;;;15.0;;
69917;SDS011;57203;42.672;23.334;2023-03-19T01:10:38;27.9;;;15.2;;
69917;SDS011;57203;42.672;23.334;2023-03-19T01:11:38;27.9;;;15.9;;
69917;SDS011;57203;42.672;23.334;2023-03-19T01:12:38;32.0;;;14.9;;
69917;SDS011;57203;42.672;23.334;2023-03-19T01:13:38;32.0;;;21.7;;
69917;SDS011;57203;42.672;23.334;2023-03-19T01:14:39;39.5;;;22.7;;
69917;SDS011;57203;42.672;23.334;2023-03-19T01:15:39;39.5;;;40.5;;
69917;SDS011;57203;42.672;23.334;2023-03-19T01:16:39;62.8;;;31.6;;
69917;SDS011;57203;42.672;23.334;2023-03-19T01:17:39;53.8;;;23.8;;
69917;SDS011;57203;42.672;23.334;2023-03-19T01:18:39;40.8;;;19.0;;
69917;SDS011;57203;42.672;23.334;2023-03-19T01:19:39;28.9;;;14.8;;
69917;SDS011;57203;42.672;23.334;2023-03-19T01:20:39;26.5;;;15.2;;
69917;SDS011;57203;42.672;23.334;2023-03-19T01:21:40;30.1;;;15.1;;
69917;SDS011;57203;42.672;23.334;2023-03-19T01:22:40;25.8;;;13.8;;
69917;SDS011;57203;42.672;23.334;2023-03-19T01:23:40;25.8;;;12.8;;
69917;SDS011;57203;42.672;23.334;2023-03-19T01:24:40;21.3;;;13.6;;
69917;SDS011;57203;42.672;23.334;2023-03-19T01:25:40;25.2;;;12.0;;
69917;SDS011;57203;42.672;23.334;2023-03-19T01:26:40;21.3;;;12.9;;
69917;SDS011;57203;42.672;23.334;2023-03-19T01:27:41;24.3;;;11.8;;
69917;SDS011;57203;42.672;23.334;2023-03-19T01:28:41;20.1;;;12.4;;
69917;SDS011;57203;42.672;23.334;2023-03-19T01:29:41;20.4;;;12.5;;
69917;SDS011;57203;42.672;23.334;2023-03-19T01:30:41;20.4;;;13.1;;
69917;SDS011;57203;42.672;23.334;2023-03-19T01:31:41;22.2;;;12.5;;
69917;SDS011;57203;42.672;23.334;2023-03-19T01:32:41;25.1;;;12.2;;
69917;SDS011;57203;42.672;23.334;2023-03-19T01:33:41;25.8;;;11.9;;
69917;SDS011;57203;42.672;23.334;2023-03-19T01:34:42;21.1;;;12.2;;
69917;SDS011;57203;42.672;23.334;2023-03-19T01:35:44;25.1;;;12.1;;
69917;SDS011;57203;42.672;23.334;2023-03-19T01:36:42;21.1;;;12.3;;
69917;SDS011;57203;42.672;23.334;2023-03-19T01:37:42;23.8;;;12.5;;
69917;SDS011;57203;42.672;23.334;2023-03-19T01:38:42;22.2;;;12.7;;
69917;SDS011;57203;42.672;23.334;2023-03-19T01:39:42;24.2;;;13.1;;
69917;SDS011;57203;42.672;23.334;2023-03-19T01:40:43;23.7;;;13.3;;
69917;SDS011;57203;42.672;23.334;2023-03-19T01:41:44;21.3;;;12.5;;
69917;SDS011;57203;42.672;23.334;2023-03-19T01:42:51;21.3;;;12.7;;
69917;SDS011;57203;42.672;23.334;2023-03-19T01:43:43;22.9;;;13.1;;
69917;SDS011;57203;42.672;23.334;2023-03-19T01:44:43;21.7;;;13.2;;
69917;SDS011;57203;42.672;23.334;2023-03-19T01:45:44;22.6;;;13.0;;
69917;SDS011;57203;42.672;23.334;2023-03-19T01:46:43;22.6;;;13.5;;
69917;SDS011;57203;42.672;23.334;2023-03-19T01:47:44;27.6;;;13.6;;
69917;SDS011;57203;42.672;23.334;2023-03-19T01:48:45;24.9;;;12.7;;
69917;SDS011;57203;42.672;23.334;2023-03-19T01:49:44;24.9;;;13.8;;
69917;SDS011;57203;42.672;23.334;2023-03-19T01:50:44;30.0;;;13.4;;
69917;SDS011;57203;42.672;23.334;2023-03-19T01:51:44;25.5;;;12.8;;
69917;SDS011;57203;42.672;23.334;2023-03-19T01:52:44;21.8;;;13.3;;
69917;SDS011;57203;42.672;23.334;2023-03-19T01:53:45;21.8;;;14.0;;
69917;SDS011;57203;42.672;23.334;2023-03-19T01:54:45;24.1;;;13.3;;
69917;SDS011;57203;42.672;23.334;2023-03-19T01:55:45;26.4;;;13.5;;
69917;SDS011;57203;42.672;23.334;2023-03-19T01:56:45;22.7;;;14.5;;
69917;SDS011;57203;42.672;23.334;2023-03-19T01:57:45;24.3;;;15.0;;
69917;SDS011;57203;42.672;23.334;2023-03-19T01:58:45;27.6;;;14.5;;
69917;SDS011;57203;42.672;23.334;2023-03-19T01:59:46;26.5;;;14.3;;
69917;SDS011;57203;42.672;23.334;2023-03-19T02:00:46;28.1;;;14.4;;
69917;SDS011;57203;42.672;23.334;2023-03-19T02:01:46;26.0;;;14.6;;
69917;SDS011;57203;42.672;23.334;2023-03-19T02:02:46;26.0;;;13.7;;
69917;SDS011;57203;42.672;23.334;2023-03-19T02:04:46;26.0;;;12.1;;
69917;SDS011;57203;42.672;23.334;2023-03-19T02:05:46;19.8;;;12.6;;
69917;SDS011;57203;42.672;23.334;2023-03-19T02:06:47;25.3;;;13.8;;
69917;SDS011;57203;42.672;23.334;2023-03-19T02:07:47;25.3;;;14.2;;
69917;SDS011;57203;42.672;23.334;2023-03-19T02:08:47;23.7;;;14.0;;
69917;SDS011;57203;42.672;23.334;2023-03-19T02:09:47;23.4;;;13.4;;
69917;SDS011;57203;42.672;23.334;2023-03-19T02:10:47;25.6;;;13.6;;
69917;SDS011;57203;42.672;23.334;2023-03-19T02:12:48;22.6;;;13.0;;
69917;SDS011;57203;42.672;23.334;2023-03-19T02:15:48;23.6;;;12.6;;
69917;SDS011;57203;42.672;23.334;2023-03-19T02:16:48;21.6;;;13.2;;
69917;SDS011;57203;42.672;23.334;2023-03-19T02:17:48;27.3;;;12.7;;
69917;SDS011;57203;42.672;23.334;2023-03-19T02:18:48;27.3;;;13.2;;
69917;SDS011;57203;42.672;23.334;2023-03-19T02:19:50;22.4;;;13.0;;
69917;SDS011;57203;42.672;23.334;2023-03-19T02:20:50;22.4;;;12.8;;
69917;SDS011;57203;42.672;23.334;2023-03-19T02:21:49;26.2;;;13.6;;
69917;SDS011;57203;42.672;23.334;2023-03-19T02:23:52;25.4;;;13.4;;
69917;SDS011;57203;42.672;23.334;2023-03-19T02:25:55;22.2;;;12.5;;
69917;SDS011;57203;42.672;23.334;2023-03-19T02:26:50;22.1;;;13.2;;
69917;SDS011;57203;42.672;23.334;2023-03-19T02:27:50;21.6;;;12.9;;
69917;SDS011;57203;42.672;23.334;2023-03-19T02:28:50;21.6;;;12.8;;
69917;SDS011;57203;42.672;23.334;2023-03-19T02:29:50;22.3;;;13.4;;
69917;SDS011;57203;42.672;23.334;2023-03-19T02:30:50;24.2;;;13.5;;
69917;SDS011;57203;42.672;23.334;2023-03-19T02:31:50;24.2;;;13.6;;
69917;SDS011;57203;42.672;23.334;2023-03-19T02:32:51;24.2;;;13.5;;
69917;SDS011;57203;42.672;23.334;2023-03-19T02:33:58;25.5;;;12.7;;
69917;SDS011;57203;42.672;23.334;2023-03-19T02:34:51;21.6;;;13.8;;
69917;SDS011;57203;42.672;23.334;2023-03-19T02:35:51;22.5;;;12.7;;
69917;SDS011;57203;42.672;23.334;2023-03-19T02:37:51;21.4;;;12.8;;
69917;SDS011;57203;42.672;23.334;2023-03-19T02:38:51;21.4;;;12.0;;
69917;SDS011;57203;42.672;23.334;2023-03-19T02:39:53;24.0;;;12.5;;
69917;SDS011;57203;42.672;23.334;2023-03-19T02:40:52;22.9;;;13.3;;
69917;SDS011;57203;42.672;23.334;2023-03-19T02:41:52;27.1;;;13.4;;
69917;SDS011;57203;42.672;23.334;2023-03-19T02:42:52;24.5;;;13.3;;
69917;SDS011;57203;42.672;23.334;2023-03-19T02:43:52;25.9;;;12.8;;
69917;SDS011;57203;42.672;23.334;2023-03-19T02:44:52;24.7;;;14.6;;
69917;SDS011;57203;42.672;23.334;2023-03-19T02:45:53;24.7;;;13.8;;
69917;SDS011;57203;42.672;23.334;2023-03-19T02:46:53;22.4;;;13.7;;
69917;SDS011;57203;42.672;23.334;2023-03-19T02:47:53;24.4;;;14.0;;
69917;SDS011;57203;42.672;23.334;2023-03-19T02:48:53;24.4;;;13.5;;
69917;SDS011;57203;42.672;23.334;2023-03-19T02:49:53;24.1;;;13.1;;
69917;SDS011;57203;42.672;23.334;2023-03-19T02:50:53;24.1;;;14.2;;
69917;SDS011;57203;42.672;23.334;2023-03-19T02:51:53;25.8;;;13.7;;
69917;SDS011;57203;42.672;23.334;2023-03-19T02:52:54;25.5;;;14.2;;
69917;SDS011;57203;42.672;23.334;2023-03-19T02:53:54;26.4;;;13.4;;
69917;SDS011;57203;42.672;23.334;2023-03-19T02:54:54;26.0;;;14.1;;
69917;SDS011;57203;42.672;23.334;2023-03-19T02:55:54;24.5;;;14.0;;
69917;SDS011;57203;42.672;23.334;2023-03-19T02:56:54;24.5;;;14.3;;
69917;SDS011;57203;42.672;23.334;2023-03-19T02:57:54;27.9;;;14.2;;
69917;SDS011;57203;42.672;23.334;2023-03-19T02:58:55;27.2;;;15.2;;
69917;SDS011;57203;42.672;23.334;2023-03-19T02:59:55;26.4;;;14.8;;
69917;SDS011;57203;42.672;23.334;2023-03-19T03:00:55;27.6;;;14.6;;
69917;SDS011;57203;42.672;23.334;2023-03-19T03:01:55;25.0;;;14.3;;
69917;SDS011;57203;42.672;23.334;2023-03-19T03:02:55;25.6;;;14.2;;
69917;SDS011;57203;42.672;23.334;2023-03-19T03:03:55;26.8;;;14.0;;
69917;SDS011;57203;42.672;23.334;2023-03-19T03:04:55;27.7;;;14.8;;
69917;SDS011;57203;42.672;23.334;2023-03-19T03:05:56;27.7;;;13.8;;
69917;SDS011;57203;42.672;23.334;2023-03-19T03:06:56;22.9;;;13.3;;
69917;SDS011;57203;42.672;23.334;2023-03-19T03:07:56;22.9;;;14.1;;
69917;SDS011;57203;42.672;23.334;2023-03-19T03:08:56;23.2;;;13.3;;
69917;SDS011;57203;42.672;23.334;2023-03-19T03:09:56;23.1;;;12.0;;
69917;SDS011;57203;42.672;23.334;2023-03-19T03:10:56;23.1;;;12.7;;
69917;SDS011;57203;42.672;23.334;2023-03-19T03:11:56;20.4;;;11.7;;
69917;SDS011;57203;42.672;23.334;2023-03-19T03:12:57;20.4;;;12.0;;
69917;SDS011;57203;42.672;23.334;2023-03-19T03:13:57;21.1;;;12.4;;
69917;SDS011;57203;42.672;23.334;2023-03-19T03:14:57;24.0;;;12.8;;
69917;SDS011;57203;42.672;23.334;2023-03-19T03:15:57;24.9;;;13.0;;
69917;SDS011;57203;42.672;23.334;2023-03-19T03:16:57;31.5;;;16.8;;
69917;SDS011;57203;42.672;23.334;2023-03-19T03:17:57;30.6;;;15.0;;
69917;SDS011;57203;42.672;23.334;2023-03-19T03:18:57;30.6;;;13.6;;
69917;SDS011;57203;42.672;23.334;2023-03-19T03:19:58;25.6;;;13.1;;
69917;SDS011;57203;42.672;23.334;2023-03-19T03:20:58;28.3;;;13.7;;
69917;SDS011;57203;42.672;23.334;2023-03-19T03:21:58;28.3;;;12.5;;
69917;SDS011;57203;42.672;23.334;2023-03-19T03:22:58;23.1;;;13.3;;
69917;SDS011;57203;42.672;23.334;2023-03-19T03:23:58;26.1;;;12.9;;
69917;SDS011;57203;42.672;23.334;2023-03-19T03:24:58;24.6;;;11.5;;
69917;SDS011;57203;42.672;23.334;2023-03-19T03:25:59;22.1;;;11.4;;
69917;SDS011;57203;42.672;23.334;2023-03-19T03:26:59;22.1;;;12.2;;
69917;SDS011;57203;42.672;23.334;2023-03-19T03:27:59;19.4;;;10.2;;
69917;SDS011;57203;42.672;23.334;2023-03-19T03:28:59;19.5;;;11.2;;
69917;SDS011;57203;42.672;23.334;2023-03-19T03:29:59;16.8;;;10.2;;
69917;SDS011;57203;42.672;23.334;2023-03-19T03:31:59;18.2;;;9.7;;
69917;SDS011;57203;42.672;23.334;2023-03-19T03:33:00;18.2;;;8.8;;
69917;SDS011;57203;42.672;23.334;2023-03-19T03:34:00;15.1;;;8.3;;
69917;SDS011;57203;42.672;23.334;2023-03-19T03:35:00;15.1;;;8.9;;
69917;SDS011;57203;42.672;23.334;2023-03-19T03:36:00;16.8;;;8.8;;
69917;SDS011;57203;42.672;23.334;2023-03-19T03:37:00;15.9;;;8.9;;
69917;SDS011;57203;42.672;23.334;2023-03-19T03:38:00;15.9;;;8.6;;
69917;SDS011;57203;42.672;23.334;2023-03-19T03:39:01;15.0;;;8.2;;
69917;SDS011;57203;42.672;23.334;2023-03-19T03:40:01;16.1;;;9.0;;
69917;SDS011;57203;42.672;23.334;2023-03-19T03:42:01;14.2;;;8.7;;
69917;SDS011;57203;42.672;23.334;2023-03-19T03:43:01;14.2;;;8.9;;
69917;SDS011;57203;42.672;23.334;2023-03-19T03:44:01;13.1;;;8.5;;
69917;SDS011;57203;42.672;23.334;2023-03-19T03:45:02;13.1;;;9.4;;
69917;SDS011;57203;42.672;23.334;2023-03-19T03:46:02;14.3;;;9.3;;
69917;SDS011;57203;42.672;23.334;2023-03-19T03:47:02;14.2;;;8.7;;
69917;SDS011;57203;42.672;23.334;2023-03-19T03:48:02;15.0;;;8.6;;
69917;SDS011;57203;42.672;23.334;2023-03-19T03:49:02;14.7;;;8.7;;
69917;SDS011;57203;42.672;23.334;2023-03-19T03:50:02;14.3;;;9.3;;
69917;SDS011;57203;42.672;23.334;2023-03-19T03:51:02;16.1;;;8.5;;
69917;SDS011;57203;42.672;23.334;2023-03-19T03:52:03;15.1;;;8.6;;
69917;SDS011;57203;42.672;23.334;2023-03-19T03:53:03;14.0;;;8.7;;
69917;SDS011;57203;42.672;23.334;2023-03-19T03:54:03;13.8;;;8.3;;
69917;SDS011;57203;42.672;23.334;2023-03-19T03:55:03;14.4;;;8.7;;
69917;SDS011;57203;42.672;23.334;2023-03-19T03:56:03;16.4;;;9.4;;
69917;SDS011;57203;42.672;23.334;2023-03-19T03:57:03;17.1;;;9.2;;
69917;SDS011;57203;42.672;23.334;2023-03-19T03:58:03;17.1;;;9.7;;
69917;SDS011;57203;42.672;23.334;2023-03-19T03:59:04;17.5;;;9.5;;
69917;SDS011;57203;42.672;23.334;2023-03-19T04:00:04;15.1;;;8.6;;
69917;SDS011;57203;42.672;23.334;2023-03-19T04:01:04;13.7;;;9.4;;
69917;SDS011;57203;42.672;23.334;2023-03-19T04:02:04;16.5;;;9.5;;
69917;SDS011;57203;42.672;23.334;2023-03-19T04:03:04;16.5;;;10.5;;
69917;SDS011;57203;42.672;23.334;2023-03-19T04:04:04;19.3;;;9.2;;
69917;SDS011;57203;42.672;23.334;2023-03-19T04:05:05;16.4;;;9.5;;
69917;SDS011;57203;42.672;23.334;2023-03-19T04:06:05;16.1;;;9.8;;
69917;SDS011;57203;42.672;23.334;2023-03-19T04:07:05;16.5;;;12.7;;
69917;SDS011;57203;42.672;23.334;2023-03-19T04:08:05;24.4;;;13.6;;
69917;SDS011;57203;42.672;23.334;2023-03-19T04:09:05;22.4;;;12.0;;
69917;SDS011;57203;42.672;23.334;2023-03-19T04:10:05;22.4;;;13.0;;
69917;SDS011;57203;42.672;23.334;2023-03-19T04:11:05;21.7;;;12.9;;
69917;SDS011;57203;42.672;23.334;2023-03-19T04:12:06;21.7;;;12.2;;
69917;SDS011;57203;42.672;23.334;2023-03-19T04:13:06;22.1;;;9.7;;
69917;SDS011;57203;42.672;23.334;2023-03-19T04:14:06;22.1;;;11.2;;
69917;SDS011;57203;42.672;23.334;2023-03-19T04:15:08;19.5;;;10.4;;
69917;SDS011;57203;42.672;23.334;2023-03-19T04:17:06;20.8;;;10.3;;
69917;SDS011;57203;42.672;23.334;2023-03-19T04:18:06;19.8;;;11.1;;
69917;SDS011;57203;42.672;23.334;2023-03-19T04:19:07;20.4;;;10.7;;
69917;SDS011;57203;42.672;23.334;2023-03-19T04:20:07;24.1;;;11.5;;
69917;SDS011;57203;42.672;23.334;2023-03-19T04:21:07;24.1;;;10.2;;
69917;SDS011;57203;42.672;23.334;2023-03-19T04:22:07;16.4;;;10.0;;
69917;SDS011;57203;42.672;23.334;2023-03-19T04:23:07;19.3;;;9.6;;
69917;SDS011;57203;42.672;23.334;2023-03-19T04:24:07;17.8;;;10.3;;
69917;SDS011;57203;42.672;23.334;2023-03-19T04:25:08;16.6;;;11.4;;
69917;SDS011;57203;42.672;23.334;2023-03-19T04:26:08;42.1;;;10.8;;
69917;SDS011;57203;42.672;23.334;2023-03-19T04:27:08;19.9;;;10.0;;
69917;SDS011;57203;42.672;23.334;2023-03-19T04:28:08;17.7;;;10.2;;
69917;SDS011;57203;42.672;23.334;2023-03-19T04:29:08;16.4;;;10.1;;
69917;SDS011;57203;42.672;23.334;2023-03-19T04:30:09;20.5;;;9.7;;
69917;SDS011;57203;42.672;23.334;2023-03-19T04:31:08;16.4;;;9.8;;
69917;SDS011;57203;42.672;23.334;2023-03-19T04:32:09;16.9;;;9.5;;
69917;SDS011;57203;42.672;23.334;2023-03-19T04:34:09;17.4;;;10.0;;
69917;SDS011;57203;42.672;23.334;2023-03-19T04:35:09;17.3;;;10.5;;
69917;SDS011;57203;42.672;23.334;2023-03-19T04:36:09;20.3;;;10.1;;
69917;SDS011;57203;42.672;23.334;2023-03-19T04:37:09;16.3;;;10.8;;
69917;SDS011;57203;42.672;23.334;2023-03-19T04:38:09;18.2;;;10.2;;
69917;SDS011;57203;42.672;23.334;2023-03-19T04:39:10;18.0;;;10.6;;
69917;SDS011;57203;42.672;23.334;2023-03-19T04:40:11;17.5;;;10.2;;
69917;SDS011;57203;42.672;23.334;2023-03-19T04:41:10;16.8;;;10.8;;
69917;SDS011;57203;42.672;23.334;2023-03-19T04:42:10;19.7;;;11.1;;
69917;SDS011;57203;42.672;23.334;2023-03-19T04:43:10;18.0;;;10.0;;
69917;SDS011;57203;42.672;23.334;2023-03-19T04:44:10;18.0;;;10.7;;
69917;SDS011;57203;42.672;23.334;2023-03-19T04:45:11;19.5;;;10.4;;
69917;SDS011;57203;42.672;23.334;2023-03-19T04:46:11;18.1;;;10.3;;
69917;SDS011;57203;42.672;23.334;2023-03-19T04:47:11;19.1;;;10.6;;
69917;SDS011;57203;42.672;23.334;2023-03-19T04:48:11;21.3;;;11.1;;
69917;SDS011;57203;42.672;23.334;2023-03-19T04:49:11;21.3;;;10.8;;
69917;SDS011;57203;42.672;23.334;2023-03-19T04:50:11;20.5;;;11.1;;
69917;SDS011;57203;42.672;23.334;2023-03-19T04:51:11;20.5;;;11.0;;
69917;SDS011;57203;42.672;23.334;2023-03-19T04:52:12;19.3;;;10.7;;
69917;SDS011;57203;42.672;23.334;2023-03-19T04:53:12;19.3;;;12.3;;
69917;SDS011;57203;42.672;23.334;2023-03-19T04:54:12;24.1;;;11.3;;
69917;SDS011;57203;42.672;23.334;2023-03-19T04:55:12;20.1;;;12.2;;
69917;SDS011;57203;42.672;23.334;2023-03-19T04:56:12;23.6;;;13.6;;
69917;SDS011;57203;42.672;23.334;2023-03-19T04:57:12;23.6;;;13.5;;
69917;SDS011;57203;42.672;23.334;2023-03-19T04:58:13;24.3;;;13.3;;
69917;SDS011;57203;42.672;23.334;2023-03-19T04:59:13;22.5;;;12.7;;
69917;SDS011;57203;42.672;23.334;2023-03-19T05:00:13;25.0;;;12.9;;
69917;SDS011;57203;42.672;23.334;2023-03-19T05:01:13;25.8;;;13.6;;
69917;SDS011;57203;42.672;23.334;2023-03-19T05:02:13;25.8;;;12.2;;
69917;SDS011;57203;42.672;23.334;2023-03-19T05:03:14;22.1;;;12.8;;
69917;SDS011;57203;42.672;23.334;2023-03-19T05:04:13;22.8;;;12.5;;
69917;SDS011;57203;42.672;23.334;2023-03-19T05:05:14;25.2;;;13.0;;
69917;SDS011;57203;42.672;23.334;2023-03-19T05:06:14;25.2;;;12.4;;
69917;SDS011;57203;42.672;23.334;2023-03-19T05:07:14;21.3;;;13.4;;
69917;SDS011;57203;42.672;23.334;2023-03-19T05:08:14;24.7;;;13.2;;
69917;SDS011;57203;42.672;23.334;2023-03-19T05:09:14;22.0;;;12.2;;
69917;SDS011;57203;42.672;23.334;2023-03-19T05:10:14;22.0;;;12.5;;
69917;SDS011;57203;42.672;23.334;2023-03-19T05:11:15;22.6;;;12.1;;
69917;SDS011;57203;42.672;23.334;2023-03-19T05:12:15;22.6;;;12.3;;
69917;SDS011;57203;42.672;23.334;2023-03-19T05:13:15;24.5;;;12.5;;
69917;SDS011;57203;42.672;23.334;2023-03-19T05:14:15;20.4;;;12.7;;
69917;SDS011;57203;42.672;23.334;2023-03-19T05:15:15;20.4;;;13.1;;
69917;SDS011;57203;42.672;23.334;2023-03-19T05:16:15;22.4;;;12.9;;
69917;SDS011;57203;42.672;23.334;2023-03-19T05:17:15;22.9;;;12.3;;
69917;SDS011;57203;42.672;23.334;2023-03-19T05:18:16;22.9;;;12.6;;
69917;SDS011;57203;42.672;23.334;2023-03-19T05:19:16;23.3;;;13.3;;
69917;SDS011;57203;42.672;23.334;2023-03-19T05:20:16;23.3;;;12.2;;
69917;SDS011;57203;42.672;23.334;2023-03-19T05:21:16;22.5;;;13.4;;
69917;SDS011;57203;42.672;23.334;2023-03-19T05:22:16;22.0;;;12.5;;
69917;SDS011;57203;42.672;23.334;2023-03-19T05:23:16;22.0;;;13.2;;
69917;SDS011;57203;42.672;23.334;2023-03-19T05:24:17;21.0;;;12.9;;
69917;SDS011;57203;42.672;23.334;2023-03-19T05:25:17;24.2;;;12.4;;
69917;SDS011;57203;42.672;23.334;2023-03-19T05:26:17;22.3;;;12.7;;
69917;SDS011;57203;42.672;23.334;2023-03-19T05:27:17;22.6;;;12.5;;
69917;SDS011;57203;42.672;23.334;2023-03-19T05:28:17;23.8;;;13.5;;
69917;SDS011;57203;42.672;23.334;2023-03-19T05:29:17;22.7;;;12.2;;
69917;SDS011;57203;42.672;23.334;2023-03-19T05:30:18;22.4;;;12.6;;
69917;SDS011;57203;42.672;23.334;2023-03-19T05:31:18;21.7;;;12.4;;
69917;SDS011;57203;42.672;23.334;2023-03-19T05:32:18;22.3;;;11.9;;
69917;SDS011;57203;42.672;23.334;2023-03-19T05:33:18;21.4;;;11.1;;
69917;SDS011;57203;42.672;23.334;2023-03-19T05:34:18;22.2;;;10.6;;
69917;SDS011;57203;42.672;23.334;2023-03-19T05:35:18;18.3;;;9.9;;
69917;SDS011;57203;42.672;23.334;2023-03-19T05:37:19;17.9;;;9.1;;
69917;SDS011;57203;42.672;23.334;2023-03-19T05:38:19;17.1;;;8.4;;
69917;SDS011;57203;42.672;23.334;2023-03-19T05:39:19;16.8;;;8.3;;
69917;SDS011;57203;42.672;23.334;2023-03-19T05:40:19;14.2;;;7.9;;
69917;SDS011;57203;42.672;23.334;2023-03-19T05:42:20;13.6;;;8.1;;
69917;SDS011;57203;42.672;23.334;2023-03-19T05:44:20;17.6;;;7.2;;
69917;SDS011;57203;42.672;23.334;2023-03-19T05:46:20;13.9;;;6.5;;
69917;SDS011;57203;42.672;23.334;2023-03-19T05:47:20;10.8;;;6.1;;
69917;SDS011;57203;42.672;23.334;2023-03-19T05:48:21;10.4;;;6.4;;
69917;SDS011;57203;42.672;23.334;2023-03-19T05:49:21;10.0;;;6.2;;
69917;SDS011;57203;42.672;23.334;2023-03-19T05:50:21;10.5;;;5.8;;
69917;SDS011;57203;42.672;23.334;2023-03-19T05:51:21;11.3;;;6.0;;
69917;SDS011;57203;42.672;23.334;2023-03-19T05:52:21;9.5;;;5.9;;
69917;SDS011;57203;42.672;23.334;2023-03-19T05:53:21;12.1;;;6.6;;
69917;SDS011;57203;42.672;23.334;2023-03-19T05:54:21;13.1;;;6.4;;
69917;SDS011;57203;42.672;23.334;2023-03-19T05:55:22;11.6;;;6.2;;
69917;SDS011;57203;42.672;23.334;2023-03-19T05:56:22;11.9;;;7.4;;
69917;SDS011;57203;42.672;23.334;2023-03-19T05:57:22;11.7;;;6.2;;
69917;SDS011;57203;42.672;23.334;2023-03-19T05:58:22;11.7;;;7.2;;
69917;SDS011;57203;42.672;23.334;2023-03-19T05:59:22;14.2;;;6.3;;
69917;SDS011;57203;42.672;23.334;2023-03-19T06:00:22;11.4;;;6.1;;
69917;SDS011;57203;42.672;23.334;2023-03-19T06:02:23;11.1;;;6.4;;
69917;SDS011;57203;42.672;23.334;2023-03-19T06:03:23;10.6;;;6.6;;
69917;SDS011;57203;42.672;23.334;2023-03-19T06:04:23;12.5;;;6.4;;
69917;SDS011;57203;42.672;23.334;2023-03-19T06:05:23;12.8;;;6.5;;
69917;SDS011;57203;42.672;23.334;2023-03-19T06:06:24;12.0;;;6.9;;
69917;SDS011;57203;42.672;23.334;2023-03-19T06:07:24;12.0;;;6.7;;
69917;SDS011;57203;42.672;23.334;2023-03-19T06:08:24;9.9;;;7.2;;
69917;SDS011;57203;42.672;23.334;2023-03-19T06:09:24;12.6;;;6.9;;
69917;SDS011;57203;42.672;23.334;2023-03-19T06:11:24;11.5;;;7.4;;
69917;SDS011;57203;42.672;23.334;2023-03-19T06:12:24;12.5;;;6.5;;
69917;SDS011;57203;42.672;23.334;2023-03-19T06:13:25;10.5;;;6.8;;
69917;SDS011;57203;42.672;23.334;2023-03-19T06:14:25;10.5;;;7.8;;
69917;SDS011;57203;42.672;23.334;2023-03-19T06:16:25;13.8;;;7.5;;
69917;SDS011;57203;42.672;23.334;2023-03-19T06:17:25;13.8;;;7.4;;